Ana Sayfa
METAR-TAF:

METAR-TAF

Havaalanları :

De Queen, Arkansas, Amerika Birleşik Devletleri

Enlem: 34-02-49N, Boylam: 094-23-58W, yükseklik: 108 m

Güncel hava durumu gözlemi

Rapor saat 11:22 UTC de 1 saat ve 11 dakika önce yapıldı.
Rüzgar güneydan 3 kt
Sıcaklık 21°C
Nem 100%
Basınç 1009 hPa
Görüş mesafesi: 16.1 km
4100 ft yükseklikte çok bulutlu
civarda gök gürültülü fırtına

METAR: KDEQ 231122Z AUTO 17003KT 10SM VCTS OVC041 21/21 A2981 RMK AO2 LTG DSNT ALQDS T02110206

Saat: 07:33 (12:33 UTC)


TAF: eksik

4.000'den fazla havaalanı için hava durumu gözlemleri ve tahminleri (METAR ve TAF raporları).

Kullanılabilir istasyonlar harita üzerinde sarı ve kırmızı noktalarla gösterilir.

İstasyonun adını görmek için fareyi noktanın üzerinde gezdirin.

Sonrasında hava gözlem ve tahminlerini görmek için tıklayın.

Haritayı değiştirmek için: yaklaştırmak için siyah artı işaretli yeşil düğmeye ve uzaklaştırmak için de eksi işaretli düğmeye hızla tıklayın; bitişik haritalar için yeşil okları kullanın.


METAR-TAF: